Huvudsida
METAR-TAF:

METAR-TAF

Flygplatser :

Kansas City International Airport

Kansas City, Missouri, USA

latitud: 39-17-50N, longitud: 094-43-50W, höjd: 312 m

Aktuellt väderrapport

Denna rapport gjordes för 48 minuter sedan, klockan 23:53 UTC
Vind 7 kt från ost/sydost
Temperatur 0°C
Fuktighet 51%
Tryck 1027 hPa
Sikt: 16.1 km
Klar himmel

METAR: KMCI 142353Z 12007KT 10SM CLR 00/M09 A3034 RMK AO2 SLP287 T00001094 10039 21017 56015

Tid: 18:41 (00:41 UTC)

Väderprognos

Denna rapport gjordes för 1 timme och 20 minuter sedan, klockan 23:21 UTC
Prognos gäller från 15 kl. 00 UTC till 15 kl. 24 UTC
Vind 3 kt varierande vindriktning
Sikt: 10 km
Klar himmel
Från 15 kl. 1400 UTC
Vind 6 kt från syd
Sikt: 10 km
Klar himmel

TAF: KMCI 142321Z 1500/1524 VRB03KT P6SM SKC FM151400 19006KT P6SM SKC

Aktuella väderrapporter och prognoser från 4000 flygplatser (METAR- och TAF-rapporter).

De tillgängliga stationerna syns som gula och röda prickar på kartan.

För musen över prickarna för att se namnen på stationerna.

Klicka sedan för att få väderrapporter och prognoser.

För att ändra kartan: Klicka på de gröna knapparna med ett svart kors på för att zooma in; den gröna knappen med ett streck på för att zooma ut; eller på de gröna pilarna för angränsande kartor.


METAR-TAF: